Observations for CONINGSBY RAF, United Kingdom (EGXC)

EGXC 241550Z 09017KT CAVOK 04/M01 Q1025 BLU 
EGXC 241450Z 08015KT CAVOK 05/M02 Q1025 BLU 
EGXC 241350Z 08015KT CAVOK 06/M02 Q1025 BLU 
EGXC 241250Z 09013KT CAVOK 06/M03 Q1025 BLU 
EGXC 241150Z 10015KT CAVOK 05/M05 Q1025 BLU 
EGXC 241050Z 10015KT CAVOK 04/M04 Q1025 BLU 
EGXC 240950Z 10014KT CAVOK 03/M04 Q1025 BLU 
EGXC 240850Z 11009KT CAVOK 02/M01 Q1024 BLU 
EGXC 240750Z 08004KT 9999 FEW024 M01/M03 Q1024 BLU  
EGXC 240650Z 11005KT 9999 FEW024 M03/M05 Q1023 BLU  
EGXC 240550Z 09005KT 9999 FEW024 M01/M03 Q1023 BLU  
EGXC 240450Z 10007KT CAVOK M02/M03 Q1022 BLU
EGXC 240350Z 10007KT 9999 FEW025 M01/M03 Q1022 BLU  
EGXC 240250Z 10008KT 9999 SCT025 00/M03 Q1022 BLU   
EGXC 240150Z 11007KT 9999 BKN025 01/M02 Q1022 BLU   
EGXC 240050Z 11007KT 9999 BKN025 01/M02 Q1022 BLU   
EGXC 232350Z AUTO 11009KT 9999 // OVC025/// 02/M02 Q1022
EGXC 232250Z 11009KT 9999 BKN024 02/M02 Q1022 WHT   
EGXC 232150Z 10007KT 9999 BKN023 02/M02 Q1022 WHT   
EGXC 232050Z 11008KT 9999 BKN022 01/M02 Q1022 WHT   
EGXC 231950Z 11007KT 9999 BKN025 01/M02 Q1022 BLU   
EGXC 231850Z 10007KT 9999 BKN028 01/M03 Q1022 BLU   
EGXC 231750Z 10011KT 9999 BKN028 01/M04 Q1022 BLU   
EGXC 231650Z 11011KT 9999 BKN030 03/M03 Q1022 BLU   
EGXC 231550Z 10013KT 9999 BKN030 03/M04 Q1022 BLU